createdAt,value
2023-05-19T00:01:56.211Z,53.08
2023-05-19T00:04:26.681Z,43.65
2023-05-19T00:06:58.261Z,45.75
2023-05-19T00:09:28.642Z,44.33
2023-05-19T00:11:59.614Z,60.05
2023-05-19T00:14:30.686Z,50.00
2023-05-19T00:17:02.873Z,48.17
2023-05-19T00:19:34.564Z,50.13
2023-05-19T00:22:05.259Z,45.20
2023-05-19T00:24:36.375Z,53.30
2023-05-19T00:27:07.091Z,50.00
2023-05-19T00:29:36.919Z,39.60
2023-05-19T00:32:08.085Z,46.42
2023-05-19T00:34:38.684Z,47.33
2023-05-19T00:37:10.721Z,44.97
2023-05-19T00:39:41.924Z,45.00
2023-05-19T00:42:13.249Z,37.30
2023-05-19T00:44:44.126Z,33.75
2023-05-19T00:47:14.764Z,33.95
2023-05-19T00:49:45.487Z,36.53
2023-05-19T00:52:15.890Z,48.00
2023-05-19T00:54:47.613Z,42.17
2023-05-19T00:57:17.974Z,47.60
2023-05-19T00:59:52.504Z,48.42
2023-05-19T01:02:23.335Z,37.88
2023-05-19T01:04:54.659Z,37.22
2023-05-19T01:07:26.470Z,36.63
2023-05-19T01:09:56.797Z,36.05
2023-05-19T01:12:27.737Z,30.00
2023-05-19T01:15:00.756Z,28.90
2023-05-19T01:17:36.316Z,35.75
2023-05-19T01:20:17.349Z,26.27
2023-05-19T01:23:00.986Z,44.65
2023-05-19T01:25:40.251Z,36.65
2023-05-19T01:28:20.802Z,30.77
2023-05-19T01:30:55.529Z,28.88
2023-05-19T01:33:26.162Z,29.02
2023-05-19T01:35:56.989Z,30.25
2023-05-19T01:38:30.129Z,36.30
2023-05-19T01:41:02.465Z,25.15
2023-05-19T01:43:36.114Z,22.40
2023-05-19T01:46:07.309Z,29.52
2023-05-19T01:48:38.283Z,22.58
2023-05-19T01:51:09.282Z,21.23
2023-05-19T01:53:40.301Z,18.05
2023-05-19T01:56:10.728Z,25.83
2023-05-19T01:58:49.146Z,20.13
2023-05-19T02:01:43.877Z,13.98
2023-05-19T02:04:21.335Z,12.55
2023-05-19T02:06:52.275Z,15.45
2023-05-19T02:09:45.482Z,21.17
2023-05-19T02:12:17.203Z,13.95
2023-05-19T02:14:51.318Z,10.05
2023-05-19T02:17:22.834Z,13.57
2023-05-19T02:19:55.815Z,18.27
2023-05-19T02:22:26.253Z,15.50
2023-05-19T02:24:58.730Z,19.50
2023-05-19T02:27:29.375Z,18.48
2023-05-19T02:29:59.810Z,14.23
2023-05-19T02:32:30.246Z,17.05
2023-05-19T02:35:01.356Z,19.98
2023-05-19T02:37:32.122Z,25.75
2023-05-19T02:40:05.115Z,23.33
2023-05-19T02:42:35.820Z,26.95
2023-05-19T02:45:10.287Z,17.13
2023-05-19T02:47:43.313Z,12.05
2023-05-19T02:50:14.412Z,15.10
2023-05-19T02:52:44.924Z,15.02
2023-05-19T02:55:18.333Z,17.92
2023-05-19T02:57:48.747Z,19.08
2023-05-19T03:00:19.352Z,26.58
2023-05-19T03:02:50.951Z,28.45
2023-05-19T03:05:21.779Z,20.40
2023-05-19T03:07:51.963Z,18.88
2023-05-19T03:10:24.908Z,18.08
2023-05-19T03:12:56.612Z,12.77
2023-05-19T03:15:27.147Z,12.43
2023-05-19T03:17:57.869Z,18.38
2023-05-19T03:20:28.651Z,16.23
2023-05-19T03:22:59.744Z,10.15
2023-05-19T03:25:31.292Z,17.50
2023-05-19T03:28:02.840Z,12.02
2023-05-19T03:30:33.091Z,17.70
2023-05-19T03:33:14.165Z,14.55
2023-05-19T03:35:47.855Z,18.88
2023-05-19T03:38:18.830Z,18.88
2023-05-19T03:40:55.433Z,23.65
2023-05-19T03:43:25.915Z,19.85
2023-05-19T03:46:00.865Z,19.40
2023-05-19T03:48:52.367Z,15.00
2023-05-19T03:51:39.786Z,15.93
2023-05-19T03:54:25.323Z,18.02
2023-05-19T03:56:55.833Z,8.98
2023-05-19T03:59:26.981Z,7.32
2023-05-19T04:01:58.958Z,6.03
2023-05-19T04:04:29.841Z,10.77
2023-05-19T04:07:00.388Z,9.70
2023-05-19T04:09:33.601Z,7.38
2023-05-19T04:12:07.375Z,14.07
2023-05-19T04:14:38.311Z,11.90
2023-05-19T04:17:09.399Z,12.65
2023-05-19T04:19:39.475Z,9.43
2023-05-19T04:22:09.522Z,17.92
2023-05-19T04:24:40.898Z,8.57
2023-05-19T04:27:13.430Z,15.05
2023-05-19T04:29:44.309Z,16.92
2023-05-19T04:32:21.696Z,16.92
2023-05-19T04:34:54.358Z,28.05
2023-05-19T04:37:28.910Z,21.52
2023-05-19T04:40:00.986Z,17.23
2023-05-19T04:42:31.767Z,23.15
2023-05-19T04:45:06.652Z,26.27
2023-05-19T04:47:40.303Z,21.27
2023-05-19T04:50:14.182Z,22.17
2023-05-19T04:52:46.601Z,25.02
2023-05-19T04:55:18.469Z,27.40
2023-05-19T04:57:50.935Z,24.13
2023-05-19T05:00:23.114Z,26.30
2023-05-19T05:03:00.963Z,31.08
2023-05-19T05:05:33.537Z,31.75
2023-05-19T05:08:04.331Z,23.27
2023-05-19T05:10:39.377Z,26.88
2023-05-19T05:13:13.109Z,24.55
2023-05-19T05:15:44.911Z,25.35
2023-05-19T05:18:17.144Z,17.73
2023-05-19T05:20:49.523Z,18.52
2023-05-19T05:23:19.612Z,16.35
2023-05-19T05:25:52.272Z,25.83
2023-05-19T05:28:23.555Z,17.05
2023-05-19T05:30:55.345Z,14.10
2023-05-19T05:33:26.473Z,14.38
2023-05-19T05:35:57.431Z,12.73
2023-05-19T05:38:29.005Z,15.45
2023-05-19T05:40:59.998Z,17.05
2023-05-19T05:43:31.181Z,14.98
2023-05-19T05:46:04.958Z,13.77
2023-05-19T05:48:37.650Z,22.83
2023-05-19T05:51:08.991Z,14.15
2023-05-19T05:53:45.801Z,20.88
2023-05-19T05:56:18.572Z,13.00
2023-05-19T05:58:57.935Z,14.90
2023-05-19T06:01:29.131Z,14.10
2023-05-19T06:04:00.371Z,17.95
2023-05-19T06:06:33.926Z,12.88
2023-05-19T06:09:05.544Z,14.07
2023-05-19T06:11:35.459Z,25.08
2023-05-19T06:14:06.797Z,19.90
2023-05-19T06:16:58.943Z,15.10
2023-05-19T06:19:29.219Z,15.65
2023-05-19T06:21:59.792Z,18.40
2023-05-19T06:24:30.629Z,15.75
2023-05-19T06:27:01.018Z,22.60
2023-05-19T06:29:31.521Z,14.48
2023-05-19T06:32:06.352Z,14.02
2023-05-19T06:34:39.625Z,16.15
2023-05-19T06:37:10.510Z,17.23
2023-05-19T06:39:41.162Z,17.95
2023-05-19T06:42:13.962Z,11.15
2023-05-19T06:45:04.482Z,8.98
2023-05-19T06:47:35.663Z,8.95
2023-05-19T06:50:06.934Z,7.97
2023-05-19T06:52:39.572Z,9.63
2023-05-19T06:55:11.127Z,9.77
2023-05-19T06:57:42.110Z,5.40
2023-05-19T07:00:16.794Z,16.17
2023-05-19T07:02:50.652Z,6.00
2023-05-19T07:05:22.498Z,11.95
2023-05-19T07:07:58.018Z,10.68
2023-05-19T07:10:32.322Z,13.98
2023-05-19T07:13:02.907Z,10.82
2023-05-19T07:15:36.198Z,6.07
2023-05-19T07:18:07.697Z,8.73
2023-05-19T07:20:39.602Z,15.70
2023-05-19T07:23:10.894Z,11.93
2023-05-19T07:25:42.192Z,10.57
2023-05-19T07:28:15.906Z,12.70
2023-05-19T07:30:46.604Z,16.65
2023-05-19T07:33:18.565Z,6.03
2023-05-19T07:35:49.255Z,12.18
2023-05-19T07:38:19.876Z,9.38
2023-05-19T07:40:50.619Z,8.93
2023-05-19T07:43:21.634Z,8.20
2023-05-19T07:45:51.762Z,4.32
2023-05-19T07:48:23.651Z,4.03
2023-05-19T07:50:55.711Z,10.18
2023-05-19T07:53:27.187Z,10.98
2023-05-19T07:55:58.876Z,9.80
2023-05-19T07:58:29.634Z,29.10
2023-05-19T08:01:03.127Z,17.42
2023-05-19T08:03:33.949Z,23.77
2023-05-19T08:06:05.089Z,9.48
2023-05-19T08:08:36.382Z,9.48
2023-05-19T08:11:08.060Z,7.13
2023-05-19T08:13:41.625Z,11.43
2023-05-19T08:16:12.871Z,10.93
2023-05-19T08:18:43.672Z,15.57
2023-05-19T08:21:14.650Z,6.78
2023-05-19T08:23:45.162Z,13.52
2023-05-19T08:26:20.119Z,11.27
2023-05-19T08:28:50.688Z,8.93
2023-05-19T08:31:20.997Z,12.02
2023-05-19T08:33:52.674Z,7.38
2023-05-19T08:36:24.244Z,10.95
2023-05-19T08:38:54.371Z,25.05
2023-05-19T08:41:25.602Z,8.52
2023-05-19T08:43:58.965Z,15.77
2023-05-19T08:46:30.813Z,6.28
2023-05-19T08:49:04.240Z,11.75
2023-05-19T08:52:13.134Z,13.30
2023-05-19T08:54:48.181Z,12.80
2023-05-19T08:57:18.913Z,7.05
2023-05-19T08:59:50.355Z,14.52
2023-05-19T09:02:21.894Z,5.43
2023-05-19T09:04:54.337Z,5.60
2023-05-19T09:07:26.680Z,29.17
2023-05-19T09:10:00.809Z,18.17
2023-05-19T09:12:32.722Z,23.30
2023-05-19T09:15:05.807Z,21.10
2023-05-19T09:17:37.804Z,8.77
2023-05-19T09:20:12.146Z,13.00
2023-05-19T09:22:44.235Z,11.10
2023-05-19T09:25:24.836Z,22.38
2023-05-19T09:27:56.932Z,14.27
2023-05-19T09:30:29.246Z,9.57
2023-05-19T09:33:02.755Z,5.18
2023-05-19T09:35:36.284Z,8.40
2023-05-19T09:38:07.790Z,10.43
2023-05-19T09:40:38.778Z,12.80
2023-05-19T09:43:10.744Z,15.18
2023-05-19T09:45:42.275Z,24.55
2023-05-19T09:48:13.673Z,17.70
2023-05-19T09:50:46.792Z,10.93
2023-05-19T09:53:19.781Z,19.27
2023-05-19T09:55:51.258Z,18.20
2023-05-19T09:58:22.744Z,22.80
2023-05-19T10:00:55.792Z,13.73
2023-05-19T10:03:27.270Z,10.00
2023-05-19T10:05:58.980Z,15.65
2023-05-19T10:08:31.412Z,19.63
2023-05-19T10:11:02.032Z,13.20
2023-05-19T10:13:32.183Z,15.35
2023-05-19T10:16:03.044Z,22.65
2023-05-19T10:18:35.277Z,22.92
2023-05-19T10:21:07.606Z,49.45
2023-05-19T10:23:39.212Z,13.35
2023-05-19T10:26:13.768Z,15.10
2023-05-19T10:28:44.394Z,23.23
2023-05-19T10:31:17.976Z,28.27
2023-05-19T10:33:48.739Z,26.23
2023-05-19T10:36:37.945Z,26.77
2023-05-19T10:39:13.778Z,14.27
2023-05-19T10:41:50.351Z,8.65
2023-05-19T10:44:21.465Z,25.88
2023-05-19T10:46:53.500Z,18.55
2023-05-19T10:49:26.313Z,14.18
2023-05-19T10:52:00.284Z,18.75
2023-05-19T10:54:44.337Z,15.35
2023-05-19T10:57:18.908Z,8.07
2023-05-19T10:59:51.281Z,19.05
2023-05-19T11:02:42.067Z,20.30
2023-05-19T11:05:15.699Z,11.38
2023-05-19T11:07:47.357Z,28.77
2023-05-19T11:10:24.787Z,15.40
2023-05-19T11:12:58.604Z,11.30
2023-05-19T11:15:31.044Z,9.95
2023-05-19T11:18:02.949Z,30.70
2023-05-19T11:20:35.863Z,13.60
2023-05-19T11:23:19.088Z,19.60
2023-05-19T11:25:50.799Z,11.10
2023-05-19T11:28:26.829Z,15.45
2023-05-19T11:30:58.809Z,22.38
2023-05-19T11:33:30.334Z,12.55
2023-05-19T11:36:00.609Z,15.60
2023-05-19T11:38:33.852Z,19.67
2023-05-19T11:41:06.075Z,18.55
2023-05-19T11:43:37.309Z,26.27
2023-05-19T11:46:08.893Z,23.05
2023-05-19T11:48:39.996Z,21.63
2023-05-19T11:51:11.463Z,10.65
2023-05-19T11:53:41.877Z,15.90
2023-05-19T11:56:13.533Z,14.02
2023-05-19T11:58:44.320Z,15.75
2023-05-19T12:01:15.301Z,17.38
2023-05-19T12:03:45.952Z,12.90
2023-05-19T12:06:18.481Z,14.07
2023-05-19T12:08:48.852Z,25.02
2023-05-19T12:11:20.427Z,13.32
2023-05-19T12:13:52.139Z,18.35
2023-05-19T12:16:23.269Z,18.55
2023-05-19T12:18:53.921Z,24.88
2023-05-19T12:21:25.243Z,18.70
2023-05-19T12:24:05.269Z,12.55
2023-05-19T12:26:37.974Z,18.23
2023-05-19T12:29:08.462Z,12.80
2023-05-19T12:31:39.143Z,16.25
2023-05-19T12:34:10.386Z,17.65
2023-05-19T12:36:42.870Z,20.05
2023-05-19T12:39:18.011Z,13.88
2023-05-19T12:41:49.401Z,14.52
2023-05-19T12:44:19.436Z,13.68
2023-05-19T12:46:53.874Z,8.50
2023-05-19T12:49:27.411Z,14.27
2023-05-19T12:51:59.556Z,27.55
2023-05-19T12:54:35.433Z,8.38
2023-05-19T12:57:07.605Z,18.63
2023-05-19T12:59:39.056Z,15.55
2023-05-19T13:02:10.616Z,13.15
2023-05-19T13:04:41.488Z,9.88
2023-05-19T13:07:11.884Z,11.63
2023-05-19T13:09:42.720Z,9.43
2023-05-19T13:12:13.847Z,12.05
2023-05-19T13:14:45.395Z,11.38
2023-05-19T13:17:15.532Z,23.85
2023-05-19T13:19:46.399Z,13.90
2023-05-19T13:22:17.815Z,11.77
2023-05-19T13:24:48.219Z,15.07
2023-05-19T13:27:19.388Z,11.75
2023-05-19T13:29:52.607Z,9.70
2023-05-19T13:32:23.653Z,11.15
2023-05-19T13:34:54.965Z,10.95
2023-05-19T13:37:26.477Z,13.27
2023-05-19T13:40:01.997Z,8.18
2023-05-19T13:42:34.452Z,12.43
2023-05-19T13:45:05.557Z,11.45
2023-05-19T13:47:36.012Z,9.65
2023-05-19T13:50:07.494Z,13.50
2023-05-19T13:52:38.077Z,11.63
2023-05-19T13:55:08.895Z,13.35
2023-05-19T13:57:41.605Z,13.23
2023-05-19T14:00:14.067Z,14.00
2023-05-19T14:02:45.569Z,9.88
2023-05-19T14:05:16.523Z,13.68
2023-05-19T14:07:47.497Z,22.60
2023-05-19T14:10:18.948Z,8.23
2023-05-19T14:13:14.026Z,12.15
2023-05-19T14:15:40.002Z,15.75
2023-05-19T14:18:11.071Z,13.32
2023-05-19T14:20:41.994Z,12.93
2023-05-19T14:23:12.445Z,12.10
2023-05-19T14:25:43.493Z,8.63
2023-05-19T14:28:13.977Z,11.25
2023-05-19T14:30:44.890Z,13.02
2023-05-19T14:33:15.058Z,14.93
2023-05-19T14:35:45.886Z,20.75
2023-05-19T14:38:15.956Z,21.42
2023-05-19T14:40:47.030Z,20.20
2023-05-19T14:43:17.075Z,23.60
2023-05-19T14:45:50.144Z,24.20
2023-05-19T14:48:20.676Z,19.25
2023-05-19T14:50:52.063Z,20.00
2023-05-19T14:53:22.771Z,20.63
2023-05-19T14:55:55.808Z,23.42
2023-05-19T14:58:28.380Z,16.88
2023-05-19T15:01:00.505Z,18.52
2023-05-19T15:03:31.455Z,17.85
2023-05-19T15:06:04.534Z,23.33
2023-05-19T15:08:35.046Z,23.83
2023-05-19T15:11:05.590Z,21.52
2023-05-19T15:13:37.053Z,29.10
2023-05-19T15:16:22.323Z,24.77
2023-05-19T15:18:54.120Z,22.17
2023-05-19T15:21:24.534Z,19.25
2023-05-19T15:23:57.646Z,19.25
2023-05-19T15:26:29.644Z,20.15
2023-05-19T15:29:01.082Z,20.83
2023-05-19T15:31:31.786Z,24.42
2023-05-19T15:34:05.076Z,22.58
2023-05-19T15:36:35.067Z,19.20
2023-05-19T15:39:06.316Z,25.48
2023-05-19T15:41:37.249Z,20.52
2023-05-19T15:44:08.004Z,27.85
2023-05-19T15:46:39.100Z,23.83
2023-05-19T15:49:13.451Z,24.30
2023-05-19T15:51:44.597Z,24.60
2023-05-19T15:54:15.097Z,24.08
2023-05-19T15:56:45.590Z,27.63
2023-05-19T15:59:16.100Z,23.00
2023-05-19T16:01:46.989Z,22.23
2023-05-19T16:04:18.887Z,23.80
2023-05-19T16:06:49.609Z,25.10
2023-05-19T16:09:20.083Z,22.02
2023-05-19T16:11:50.821Z,23.25
2023-05-19T16:14:21.072Z,21.65
2023-05-19T16:16:52.386Z,23.50
2023-05-19T16:19:24.992Z,21.33
2023-05-19T16:21:55.092Z,22.77
2023-05-19T16:24:26.066Z,21.42
2023-05-19T16:26:57.072Z,24.98
2023-05-19T16:29:30.076Z,22.73
2023-05-19T16:32:00.601Z,26.70
2023-05-19T16:34:31.935Z,27.88
2023-05-19T16:37:03.140Z,28.75
2023-05-19T16:39:33.123Z,25.00
2023-05-19T16:42:03.635Z,22.67
2023-05-19T16:44:34.092Z,22.35
2023-05-19T16:47:05.194Z,21.83
2023-05-19T16:49:36.148Z,23.52
2023-05-19T16:52:07.260Z,22.60
2023-05-19T16:54:37.579Z,22.48
2023-05-19T16:57:08.086Z,25.98
2023-05-19T16:59:38.658Z,22.73
2023-05-19T17:02:09.787Z,21.75
2023-05-19T17:04:40.365Z,22.63
2023-05-19T17:07:13.565Z,23.27
2023-05-19T17:09:44.186Z,21.35
2023-05-19T17:12:14.673Z,22.35
2023-05-19T17:14:45.381Z,23.75
2023-05-19T17:17:15.650Z,24.55
2023-05-19T17:19:47.151Z,21.90
2023-05-19T17:22:17.767Z,31.33
2023-05-19T17:24:48.678Z,22.67
2023-05-19T17:27:19.227Z,23.92
2023-05-19T17:29:49.549Z,30.80
2023-05-19T17:32:23.400Z,28.42
2023-05-19T17:34:54.175Z,37.03
2023-05-19T17:37:26.704Z,23.25
2023-05-19T17:39:57.664Z,22.55
2023-05-19T17:42:27.621Z,24.83
2023-05-19T17:44:57.890Z,24.17
2023-05-19T17:47:28.752Z,25.23
2023-05-19T17:49:58.904Z,24.33
2023-05-19T17:52:29.331Z,26.38
2023-05-19T17:55:00.193Z,28.35
2023-05-19T17:57:33.668Z,22.63
2023-05-19T18:00:05.011Z,26.38
2023-05-19T18:02:35.509Z,23.48
2023-05-19T18:05:06.202Z,23.00
2023-05-19T18:07:42.217Z,28.65
2023-05-19T18:10:13.420Z,19.60
2023-05-19T18:12:43.722Z,21.92
2023-05-19T18:15:14.180Z,22.88
2023-05-19T18:17:45.359Z,20.38
2023-05-19T18:20:16.072Z,23.40
2023-05-19T18:22:48.214Z,27.75
2023-05-19T18:25:19.730Z,20.45
2023-05-19T18:27:49.999Z,21.30
2023-05-19T18:30:26.208Z,18.27
2023-05-19T18:32:57.313Z,24.00
2023-05-19T18:35:27.737Z,21.27
2023-05-19T18:37:58.682Z,20.77
2023-05-19T18:40:29.241Z,20.52
2023-05-19T18:42:59.744Z,20.45
2023-05-19T18:45:29.714Z,20.10
2023-05-19T18:48:00.279Z,20.08
2023-05-19T18:50:32.765Z,20.40
2023-05-19T18:53:03.784Z,18.42
2023-05-19T18:55:36.464Z,19.45
2023-05-19T18:58:10.355Z,22.02
2023-05-19T19:00:43.281Z,28.25
2023-05-19T19:03:14.020Z,21.00
2023-05-19T19:05:44.679Z,18.70
2023-05-19T19:08:14.753Z,25.20
2023-05-19T19:10:45.677Z,20.30
2023-05-19T19:13:16.482Z,18.75
2023-05-19T19:15:47.021Z,20.77
2023-05-19T19:18:18.101Z,19.70
2023-05-19T19:20:48.305Z,21.40
2023-05-19T19:23:19.358Z,20.05
2023-05-19T19:25:49.743Z,19.23
2023-05-19T19:28:19.814Z,21.42
2023-05-19T19:30:50.130Z,19.98
2023-05-19T19:33:21.119Z,19.90
2023-05-19T19:35:52.316Z,20.30
2023-05-19T19:38:22.217Z,19.20
2023-05-19T19:40:53.727Z,18.90
2023-05-19T19:43:24.376Z,19.60
2023-05-19T19:46:02.053Z,20.23
2023-05-19T19:48:32.787Z,21.98
2023-05-19T19:51:03.193Z,19.27
2023-05-19T19:53:36.820Z,22.42
2023-05-19T19:56:08.310Z,19.95
2023-05-19T19:58:38.267Z,31.15
2023-05-19T20:01:09.727Z,27.15
2023-05-19T20:03:43.366Z,35.85
2023-05-19T20:06:15.361Z,36.00
2023-05-19T20:08:45.789Z,30.73
2023-05-19T20:11:16.397Z,26.85
2023-05-19T20:13:47.532Z,25.10
2023-05-19T20:16:18.227Z,31.33
2023-05-19T20:18:48.934Z,33.15
2023-05-19T20:21:19.626Z,33.40
2023-05-19T20:23:52.851Z,41.72
2023-05-19T20:26:23.683Z,40.05
2023-05-19T20:28:53.861Z,37.03
2023-05-19T20:31:25.910Z,35.50
2023-05-19T20:33:57.314Z,30.23
2023-05-19T20:36:29.138Z,33.15
2023-05-19T20:39:00.824Z,34.42
2023-05-19T20:41:31.801Z,31.08
2023-05-19T20:44:02.928Z,28.25
2023-05-19T20:46:33.188Z,30.35
2023-05-19T20:49:04.393Z,30.40
2023-05-19T20:51:34.314Z,30.00
2023-05-19T20:54:06.374Z,25.83
2023-05-19T20:56:36.361Z,33.55
2023-05-19T20:59:07.377Z,33.22
2023-05-19T21:01:38.928Z,35.90
2023-05-19T21:04:09.170Z,31.77
2023-05-19T21:06:40.002Z,34.60
2023-05-19T21:09:11.902Z,26.38
2023-05-19T21:11:42.438Z,27.95
2023-05-19T21:14:13.120Z,29.27
2023-05-19T21:16:43.922Z,26.52
2023-05-19T21:19:14.415Z,27.25
2023-05-19T21:21:45.984Z,23.75
2023-05-19T21:24:16.898Z,17.98
2023-05-19T21:26:48.350Z,16.52
2023-05-19T21:29:19.475Z,17.58
2023-05-19T21:31:50.428Z,16.33
2023-05-19T21:34:20.341Z,11.18
2023-05-19T21:36:51.912Z,12.85
2023-05-19T21:39:22.431Z,12.13
2023-05-19T21:41:55.908Z,12.80
2023-05-19T21:44:26.988Z,12.45
2023-05-19T21:46:59.897Z,13.65
2023-05-19T21:49:31.238Z,14.13
2023-05-19T21:52:01.959Z,13.70
2023-05-19T21:54:32.930Z,13.05
2023-05-19T21:57:04.174Z,15.40
2023-05-19T21:59:34.408Z,13.15
2023-05-19T22:02:04.787Z,14.02
2023-05-19T22:04:35.478Z,14.27
2023-05-19T22:07:10.673Z,20.13
2023-05-19T22:09:41.414Z,20.05
2023-05-19T22:12:11.924Z,20.40
2023-05-19T22:14:42.416Z,19.80
2023-05-19T22:17:12.446Z,17.67
2023-05-19T22:19:43.414Z,18.50
2023-05-19T22:22:14.822Z,18.25
2023-05-19T22:24:45.392Z,18.42
2023-05-19T22:27:15.444Z,19.35
2023-05-19T22:29:46.901Z,21.08
2023-05-19T22:32:19.682Z,24.90
2023-05-19T22:34:50.007Z,20.38
2023-05-19T22:37:22.873Z,19.60
2023-05-19T22:39:53.708Z,16.20
2023-05-19T22:42:24.510Z,16.67
2023-05-19T22:44:58.014Z,19.52
2023-05-19T22:47:29.009Z,21.35
2023-05-19T22:49:59.663Z,16.38
2023-05-19T22:52:30.478Z,23.65
2023-05-19T22:55:00.532Z,25.63
2023-05-19T22:57:33.110Z,22.08
2023-05-19T23:00:04.118Z,17.73
2023-05-19T23:02:35.511Z,19.80
2023-05-19T23:05:07.108Z,16.35
2023-05-19T23:07:38.044Z,30.52
2023-05-19T23:10:09.016Z,26.75
2023-05-19T23:12:41.221Z,18.50
2023-05-19T23:15:13.530Z,21.50
2023-05-19T23:17:44.137Z,27.00
2023-05-19T23:20:15.520Z,22.80
2023-05-19T23:22:46.129Z,18.67
2023-05-19T23:25:17.709Z,29.63
2023-05-19T23:27:48.129Z,29.40
2023-05-19T23:30:18.602Z,30.27
2023-05-19T23:32:50.055Z,33.97
2023-05-19T23:35:21.986Z,34.65
2023-05-19T23:37:52.298Z,36.97
2023-05-19T23:40:25.325Z,30.60
2023-05-19T23:42:56.119Z,37.22
2023-05-19T23:45:30.588Z,30.15
2023-05-19T23:48:01.571Z,27.13
2023-05-19T23:50:32.568Z,22.40
2023-05-19T23:53:03.134Z,20.58
2023-05-19T23:55:36.640Z,22.30
2023-05-19T23:58:07.561Z,19.55
